sensor_id;sensor_type;location;lat;lon;timestamp;temperature;humidity
31675;DHT22;18276;45.520;11.018;2022-12-07T00:02:09;2.90;99.90
31675;DHT22;18276;45.520;11.018;2022-12-07T00:06:02;3.00;99.90
31675;DHT22;18276;45.520;11.018;2022-12-07T00:27:11;2.60;99.90
31675;DHT22;18276;45.520;11.018;2022-12-07T01:13:57;3.80;99.90
31675;DHT22;18276;45.520;11.018;2022-12-07T01:16:44;3.80;99.90
31675;DHT22;18276;45.520;11.018;2022-12-07T01:49:49;3.50;99.90
31675;DHT22;18276;45.520;11.018;2022-12-07T02:05:44;2.50;99.90
31675;DHT22;18276;45.520;11.018;2022-12-07T02:09:54;2.50;99.90
31675;DHT22;18276;45.520;11.018;2022-12-07T02:18:20;2.60;99.90
31675;DHT22;18276;45.520;11.018;2022-12-07T03:52:35;3.80;98.70
31675;DHT22;18276;45.520;11.018;2022-12-07T03:55:48;3.80;98.40
31675;DHT22;18276;45.520;11.018;2022-12-07T03:58:21;3.80;98.10
31675;DHT22;18276;45.520;11.018;2022-12-07T04:00:56;3.80;97.90
31675;DHT22;18276;45.520;11.018;2022-12-07T04:07:53;3.80;97.50
31675;DHT22;18276;45.520;11.018;2022-12-07T04:14:44;3.70;97.40
31675;DHT22;18276;45.520;11.018;2022-12-07T04:18:28;3.70;97.50
31675;DHT22;18276;45.520;11.018;2022-12-07T04:45:04;3.70;96.20
31675;DHT22;18276;45.520;11.018;2022-12-07T04:57:04;3.80;95.80
31675;DHT22;18276;45.520;11.018;2022-12-07T05:05:19;3.80;95.60
31675;DHT22;18276;45.520;11.018;2022-12-07T05:34:01;3.70;95.10
31675;DHT22;18276;45.520;11.018;2022-12-07T05:55:06;3.70;94.70
31675;DHT22;18276;45.520;11.018;2022-12-07T05:58:48;3.70;94.70
31675;DHT22;18276;45.520;11.018;2022-12-07T06:02:13;3.60;94.80
31675;DHT22;18276;45.520;11.018;2022-12-07T06:05:28;3.60;95.00
31675;DHT22;18276;45.520;11.018;2022-12-07T06:13:26;3.40;95.50
31675;DHT22;18276;45.520;11.018;2022-12-07T06:19:59;3.40;95.70
31675;DHT22;18276;45.520;11.018;2022-12-07T06:23:33;3.40;95.80
31675;DHT22;18276;45.520;11.018;2022-12-07T06:31:08;3.50;95.70
31675;DHT22;18276;45.520;11.018;2022-12-07T06:34:19;3.50;95.60
31675;DHT22;18276;45.520;11.018;2022-12-07T06:37:11;3.50;95.50
31675;DHT22;18276;45.520;11.018;2022-12-07T06:41:07;3.50;95.50
31675;DHT22;18276;45.520;11.018;2022-12-07T06:43:43;3.50;95.50
31675;DHT22;18276;45.520;11.018;2022-12-07T06:46:52;3.50;95.50
31675;DHT22;18276;45.520;11.018;2022-12-07T06:50:00;3.60;95.50
31675;DHT22;18276;45.520;11.018;2022-12-07T06:52:28;3.60;95.50
31675;DHT22;18276;45.520;11.018;2022-12-07T06:58:17;3.60;95.60
31675;DHT22;18276;45.520;11.018;2022-12-07T07:00:45;3.60;95.60
31675;DHT22;18276;45.520;11.018;2022-12-07T07:03:12;3.60;95.50
31675;DHT22;18276;45.520;11.018;2022-12-07T07:05:39;3.60;95.60
31675;DHT22;18276;45.520;11.018;2022-12-07T07:08:07;3.70;95.60
31675;DHT22;18276;45.520;11.018;2022-12-07T07:10:50;3.70;95.50
31675;DHT22;18276;45.520;11.018;2022-12-07T07:13:17;3.70;95.40
31675;DHT22;18276;45.520;11.018;2022-12-07T07:15:44;3.70;95.40
31675;DHT22;18276;45.520;11.018;2022-12-07T07:18:11;3.80;95.70
31675;DHT22;18276;45.520;11.018;2022-12-07T07:20:40;3.90;95.60
31675;DHT22;18276;45.520;11.018;2022-12-07T07:23:07;3.90;95.40
31675;DHT22;18276;45.520;11.018;2022-12-07T07:25:34;4.00;95.20
31675;DHT22;18276;45.520;11.018;2022-12-07T07:28:01;4.10;95.30
31675;DHT22;18276;45.520;11.018;2022-12-07T07:30:28;4.90;95.80
31675;DHT22;18276;45.520;11.018;2022-12-07T07:33:00;6.30;94.70
31675;DHT22;18276;45.520;11.018;2022-12-07T07:35:29;7.60;92.10
31675;DHT22;18276;45.520;11.018;2022-12-07T07:37:57;8.60;90.10
31675;DHT22;18276;45.520;11.018;2022-12-07T07:40:25;9.60;86.10
31675;DHT22;18276;45.520;11.018;2022-12-07T07:42:53;10.20;82.10
31675;DHT22;18276;45.520;11.018;2022-12-07T07:45:22;10.80;78.60
31675;DHT22;18276;45.520;11.018;2022-12-07T07:47:50;11.30;75.90
31675;DHT22;18276;45.520;11.018;2022-12-07T07:50:17;11.70;72.60
31675;DHT22;18276;45.520;11.018;2022-12-07T07:52:44;12.30;70.50
31675;DHT22;18276;45.520;11.018;2022-12-07T07:55:12;13.00;67.10
31675;DHT22;18276;45.520;11.018;2022-12-07T07:57:40;13.50;64.50
31675;DHT22;18276;45.520;11.018;2022-12-07T08:00:12;14.00;62.40
31675;DHT22;18276;45.520;11.018;2022-12-07T08:02:40;14.60;60.10
31675;DHT22;18276;45.520;11.018;2022-12-07T08:05:10;15.40;58.40
31675;DHT22;18276;45.520;11.018;2022-12-07T08:07:38;16.20;56.40
31675;DHT22;18276;45.520;11.018;2022-12-07T08:10:06;16.80;54.10
31675;DHT22;18276;45.520;11.018;2022-12-07T08:12:39;17.30;51.90
31675;DHT22;18276;45.520;11.018;2022-12-07T08:15:28;17.70;50.00
31675;DHT22;18276;45.520;11.018;2022-12-07T08:17:55;18.10;49.30
31675;DHT22;18276;45.520;11.018;2022-12-07T08:20:22;18.20;48.00
31675;DHT22;18276;45.520;11.018;2022-12-07T08:22:49;18.40;47.40
31675;DHT22;18276;45.520;11.018;2022-12-07T08:25:17;18.50;46.30
31675;DHT22;18276;45.520;11.018;2022-12-07T08:27:44;18.70;45.90
31675;DHT22;18276;45.520;11.018;2022-12-07T08:30:11;19.00;45.10
31675;DHT22;18276;45.520;11.018;2022-12-07T08:32:38;19.10;44.00
31675;DHT22;18276;45.520;11.018;2022-12-07T08:35:05;19.20;43.90
31675;DHT22;18276;45.520;11.018;2022-12-07T08:37:32;19.30;43.60
31675;DHT22;18276;45.520;11.018;2022-12-07T08:39:59;19.30;43.20
31675;DHT22;18276;45.520;11.018;2022-12-07T08:42:27;19.30;43.40
31675;DHT22;18276;45.520;11.018;2022-12-07T08:44:57;19.20;42.60
31675;DHT22;18276;45.520;11.018;2022-12-07T08:47:24;19.00;42.70
31675;DHT22;18276;45.520;11.018;2022-12-07T08:49:52;18.90;43.20
31675;DHT22;18276;45.520;11.018;2022-12-07T08:52:20;18.70;43.10
31675;DHT22;18276;45.520;11.018;2022-12-07T08:54:47;18.50;43.70
31675;DHT22;18276;45.520;11.018;2022-12-07T08:57:15;18.30;43.90
31675;DHT22;18276;45.520;11.018;2022-12-07T08:59:42;18.10;43.50
31675;DHT22;18276;45.520;11.018;2022-12-07T09:02:09;17.50;45.10
31675;DHT22;18276;45.520;11.018;2022-12-07T09:04:36;17.20;46.70
31675;DHT22;18276;45.520;11.018;2022-12-07T09:07:03;17.00;47.70
31675;DHT22;18276;45.520;11.018;2022-12-07T09:09:31;16.90;48.70
31675;DHT22;18276;45.520;11.018;2022-12-07T09:11:58;16.90;50.10
31675;DHT22;18276;45.520;11.018;2022-12-07T09:14:25;16.90;49.80
31675;DHT22;18276;45.520;11.018;2022-12-07T09:16:52;17.00;49.60
31675;DHT22;18276;45.520;11.018;2022-12-07T09:19:19;17.00;49.20
31675;DHT22;18276;45.520;11.018;2022-12-07T09:21:46;17.00;49.60
31675;DHT22;18276;45.520;11.018;2022-12-07T09:24:13;16.70;50.20
31675;DHT22;18276;45.520;11.018;2022-12-07T09:26:40;16.50;50.60
31675;DHT22;18276;45.520;11.018;2022-12-07T09:29:07;16.30;52.10
31675;DHT22;18276;45.520;11.018;2022-12-07T09:31:36;16.20;53.10
31675;DHT22;18276;45.520;11.018;2022-12-07T09:34:04;16.20;53.80
31675;DHT22;18276;45.520;11.018;2022-12-07T09:36:33;16.20;54.10
31675;DHT22;18276;45.520;11.018;2022-12-07T09:39:00;16.20;53.80
31675;DHT22;18276;45.520;11.018;2022-12-07T09:41:29;16.10;54.10
31675;DHT22;18276;45.520;11.018;2022-12-07T09:44:09;16.00;54.00
31675;DHT22;18276;45.520;11.018;2022-12-07T09:46:39;16.00;55.50
31675;DHT22;18276;45.520;11.018;2022-12-07T09:49:12;16.20;55.60
31675;DHT22;18276;45.520;11.018;2022-12-07T09:51:41;16.10;54.40
31675;DHT22;18276;45.520;11.018;2022-12-07T09:54:13;16.00;55.20
31675;DHT22;18276;45.520;11.018;2022-12-07T09:56:41;16.20;55.70
31675;DHT22;18276;45.520;11.018;2022-12-07T09:59:17;16.40;54.90
31675;DHT22;18276;45.520;11.018;2022-12-07T10:01:49;16.60;54.60
31675;DHT22;18276;45.520;11.018;2022-12-07T10:04:22;16.80;54.00
31675;DHT22;18276;45.520;11.018;2022-12-07T10:06:51;17.10;53.40
31675;DHT22;18276;45.520;11.018;2022-12-07T10:09:20;17.30;53.40
31675;DHT22;18276;45.520;11.018;2022-12-07T10:12:08;17.30;51.60
31675;DHT22;18276;45.520;11.018;2022-12-07T10:14:38;17.30;51.40
31675;DHT22;18276;45.520;11.018;2022-12-07T10:17:33;17.40;51.70
31675;DHT22;18276;45.520;11.018;2022-12-07T10:23:03;18.00;50.60
31675;DHT22;18276;45.520;11.018;2022-12-07T10:25:35;18.40;49.60
31675;DHT22;18276;45.520;11.018;2022-12-07T10:28:11;18.60;49.50
31675;DHT22;18276;45.520;11.018;2022-12-07T10:39:39;20.20;47.30
31675;DHT22;18276;45.520;11.018;2022-12-07T10:41:35;20.60;46.60
31675;DHT22;18276;45.520;11.018;2022-12-07T10:44:02;20.50;45.40
31675;DHT22;18276;45.520;11.018;2022-12-07T11:20:51;24.00;41.00
31675;DHT22;18276;45.520;11.018;2022-12-07T11:36:56;22.70;42.30
31675;DHT22;18276;45.520;11.018;2022-12-07T11:39:33;22.50;43.20
31675;DHT22;18276;45.520;11.018;2022-12-07T11:42:06;22.90;43.20
31675;DHT22;18276;45.520;11.018;2022-12-07T11:44:39;23.00;42.40
31675;DHT22;18276;45.520;11.018;2022-12-07T11:47:13;22.90;42.50
31675;DHT22;18276;45.520;11.018;2022-12-07T11:49:44;23.00;42.30
31675;DHT22;18276;45.520;11.018;2022-12-07T11:52:36;22.90;42.60
31675;DHT22;18276;45.520;11.018;2022-12-07T11:55:04;23.00;42.40
31675;DHT22;18276;45.520;11.018;2022-12-07T11:57:33;22.90;42.50
31675;DHT22;18276;45.520;11.018;2022-12-07T12:00:04;23.10;42.70
31675;DHT22;18276;45.520;11.018;2022-12-07T12:02:37;23.30;42.20
31675;DHT22;18276;45.520;11.018;2022-12-07T12:05:13;23.30;42.10
31675;DHT22;18276;45.520;11.018;2022-12-07T12:07:42;23.20;41.90
31675;DHT22;18276;45.520;11.018;2022-12-07T12:10:42;23.00;42.50
31675;DHT22;18276;45.520;11.018;2022-12-07T12:21:49;22.60;43.50
31675;DHT22;18276;45.520;11.018;2022-12-07T12:24:26;22.90;43.40
31675;DHT22;18276;45.520;11.018;2022-12-07T12:27:01;23.20;42.80
31675;DHT22;18276;45.520;11.018;2022-12-07T12:29:33;23.40;42.00
31675;DHT22;18276;45.520;11.018;2022-12-07T12:32:04;23.50;41.70
31675;DHT22;18276;45.520;11.018;2022-12-07T12:34:37;23.50;41.60
31675;DHT22;18276;45.520;11.018;2022-12-07T12:37:13;23.40;41.40
31675;DHT22;18276;45.520;11.018;2022-12-07T12:42:50;23.30;41.70
31675;DHT22;18276;45.520;11.018;2022-12-07T12:47:53;23.30;41.60
31675;DHT22;18276;45.520;11.018;2022-12-07T12:50:26;23.50;41.90
31675;DHT22;18276;45.520;11.018;2022-12-07T13:00:46;23.50;41.50
31675;DHT22;18276;45.520;11.018;2022-12-07T13:03:29;23.40;41.20
31675;DHT22;18276;45.520;11.018;2022-12-07T13:06:32;23.10;41.40
31675;DHT22;18276;45.520;11.018;2022-12-07T13:08:49;22.80;41.10
31675;DHT22;18276;45.520;11.018;2022-12-07T13:11:35;22.60;41.90
31675;DHT22;18276;45.520;11.018;2022-12-07T13:16:55;22.10;42.90
31675;DHT22;18276;45.520;11.018;2022-12-07T13:27:51;21.20;43.90
31675;DHT22;18276;45.520;11.018;2022-12-07T13:30:21;20.80;43.80
31675;DHT22;18276;45.520;11.018;2022-12-07T13:32:54;20.30;44.70
31675;DHT22;18276;45.520;11.018;2022-12-07T13:35:32;20.00;45.30
31675;DHT22;18276;45.520;11.018;2022-12-07T13:38:34;19.60;46.40
31675;DHT22;18276;45.520;11.018;2022-12-07T13:41:00;19.40;47.10
31675;DHT22;18276;45.520;11.018;2022-12-07T13:43:27;19.20;47.80
31675;DHT22;18276;45.520;11.018;2022-12-07T13:45:58;19.00;48.00
31675;DHT22;18276;45.520;11.018;2022-12-07T13:48:43;18.70;48.40
31675;DHT22;18276;45.520;11.018;2022-12-07T13:51:20;18.20;49.30
31675;DHT22;18276;45.520;11.018;2022-12-07T13:53:49;17.50;50.30
31675;DHT22;18276;45.520;11.018;2022-12-07T13:56:17;17.10;51.40
31675;DHT22;18276;45.520;11.018;2022-12-07T13:58:44;16.70;52.20
31675;DHT22;18276;45.520;11.018;2022-12-07T14:01:12;16.30;53.20
31675;DHT22;18276;45.520;11.018;2022-12-07T14:03:40;15.90;54.00
31675;DHT22;18276;45.520;11.018;2022-12-07T14:06:26;15.50;54.70
31675;DHT22;18276;45.520;11.018;2022-12-07T14:09:24;15.40;55.70
31675;DHT22;18276;45.520;11.018;2022-12-07T14:11:54;15.00;56.40
31675;DHT22;18276;45.520;11.018;2022-12-07T14:14:25;14.70;57.10
31675;DHT22;18276;45.520;11.018;2022-12-07T14:17:16;14.30;57.80
31675;DHT22;18276;45.520;11.018;2022-12-07T14:19:46;14.10;58.50
31675;DHT22;18276;45.520;11.018;2022-12-07T14:22:28;13.90;58.90
31675;DHT22;18276;45.520;11.018;2022-12-07T14:27:39;13.20;59.70
31675;DHT22;18276;45.520;11.018;2022-12-07T14:30:17;12.70;60.50
31675;DHT22;18276;45.520;11.018;2022-12-07T14:32:44;12.40;61.90
31675;DHT22;18276;45.520;11.018;2022-12-07T14:35:17;12.10;62.70
31675;DHT22;18276;45.520;11.018;2022-12-07T14:37:47;11.90;63.90
31675;DHT22;18276;45.520;11.018;2022-12-07T14:40:21;11.60;64.80
31675;DHT22;18276;45.520;11.018;2022-12-07T14:42:51;11.30;66.20
31675;DHT22;18276;45.520;11.018;2022-12-07T14:45:21;11.10;67.20
31675;DHT22;18276;45.520;11.018;2022-12-07T14:47:48;10.90;68.00
31675;DHT22;18276;45.520;11.018;2022-12-07T14:50:39;10.60;68.60
31675;DHT22;18276;45.520;11.018;2022-12-07T14:53:42;10.40;69.50
31675;DHT22;18276;45.520;11.018;2022-12-07T14:56:09;10.10;70.70
31675;DHT22;18276;45.520;11.018;2022-12-07T14:58:37;9.90;70.90
31675;DHT22;18276;45.520;11.018;2022-12-07T15:01:05;9.80;71.70
31675;DHT22;18276;45.520;11.018;2022-12-07T15:03:32;9.60;72.30
31675;DHT22;18276;45.520;11.018;2022-12-07T15:06:01;9.50;73.00
31675;DHT22;18276;45.520;11.018;2022-12-07T15:08:28;9.40;73.90
31675;DHT22;18276;45.520;11.018;2022-12-07T15:10:55;9.20;74.60
31675;DHT22;18276;45.520;11.018;2022-12-07T15:13:22;9.10;75.00
31675;DHT22;18276;45.520;11.018;2022-12-07T15:16:11;9.00;75.80
31675;DHT22;18276;45.520;11.018;2022-12-07T15:18:39;8.80;76.60
31675;DHT22;18276;45.520;11.018;2022-12-07T15:21:24;8.70;77.00
31675;DHT22;18276;45.520;11.018;2022-12-07T15:23:51;8.60;77.10
31675;DHT22;18276;45.520;11.018;2022-12-07T15:26:18;8.40;77.50
31675;DHT22;18276;45.520;11.018;2022-12-07T15:28:45;8.30;78.20
31675;DHT22;18276;45.520;11.018;2022-12-07T15:31:17;8.20;78.90
31675;DHT22;18276;45.520;11.018;2022-12-07T15:34:06;8.10;79.20
31675;DHT22;18276;45.520;11.018;2022-12-07T15:36:36;8.00;79.40
31675;DHT22;18276;45.520;11.018;2022-12-07T15:39:03;7.80;79.70
31675;DHT22;18276;45.520;11.018;2022-12-07T15:41:40;7.70;80.20
31675;DHT22;18276;45.520;11.018;2022-12-07T15:44:13;7.60;80.60
31675;DHT22;18276;45.520;11.018;2022-12-07T15:46:59;7.50;81.10
31675;DHT22;18276;45.520;11.018;2022-12-07T15:49:27;7.40;81.30
31675;DHT22;18276;45.520;11.018;2022-12-07T15:51:54;7.30;81.80
31675;DHT22;18276;45.520;11.018;2022-12-07T15:54:26;7.20;82.20
31675;DHT22;18276;45.520;11.018;2022-12-07T15:56:54;7.10;82.90
31675;DHT22;18276;45.520;11.018;2022-12-07T15:59:22;7.00;83.40
31675;DHT22;18276;45.520;11.018;2022-12-07T16:01:49;7.00;83.70
31675;DHT22;18276;45.520;11.018;2022-12-07T16:04:16;6.90;84.00
31675;DHT22;18276;45.520;11.018;2022-12-07T16:06:43;6.90;84.40
31675;DHT22;18276;45.520;11.018;2022-12-07T16:09:11;6.80;84.70
31675;DHT22;18276;45.520;11.018;2022-12-07T16:11:38;6.80;85.10
31675;DHT22;18276;45.520;11.018;2022-12-07T16:14:05;6.70;85.30
31675;DHT22;18276;45.520;11.018;2022-12-07T16:16:32;6.60;85.60
31675;DHT22;18276;45.520;11.018;2022-12-07T16:18:59;6.60;86.00
31675;DHT22;18276;45.520;11.018;2022-12-07T16:21:26;6.50;86.30
31675;DHT22;18276;45.520;11.018;2022-12-07T16:23:53;6.50;86.70
31675;DHT22;18276;45.520;11.018;2022-12-07T16:26:21;6.50;87.00
31675;DHT22;18276;45.520;11.018;2022-12-07T16:28:52;6.40;87.10
31675;DHT22;18276;45.520;11.018;2022-12-07T16:31:22;6.40;87.40
31675;DHT22;18276;45.520;11.018;2022-12-07T16:33:51;6.30;87.60
31675;DHT22;18276;45.520;11.018;2022-12-07T16:36:19;6.30;87.90
31675;DHT22;18276;45.520;11.018;2022-12-07T16:39:09;6.20;88.10
31675;DHT22;18276;45.520;11.018;2022-12-07T16:41:36;6.20;88.20
31675;DHT22;18276;45.520;11.018;2022-12-07T16:44:06;6.20;88.50
31675;DHT22;18276;45.520;11.018;2022-12-07T16:46:35;6.10;88.90
31675;DHT22;18276;45.520;11.018;2022-12-07T16:49:03;6.10;89.10
31675;DHT22;18276;45.520;11.018;2022-12-07T16:51:31;6.10;89.20
31675;DHT22;18276;45.520;11.018;2022-12-07T16:53:58;6.00;89.60
31675;DHT22;18276;45.520;11.018;2022-12-07T16:56:25;6.00;90.00
31675;DHT22;18276;45.520;11.018;2022-12-07T16:58:53;5.90;90.10
31675;DHT22;18276;45.520;11.018;2022-12-07T17:01:22;5.90;90.20
31675;DHT22;18276;45.520;11.018;2022-12-07T17:03:50;5.90;90.40
31675;DHT22;18276;45.520;11.018;2022-12-07T17:06:19;5.90;90.60
31675;DHT22;18276;45.520;11.018;2022-12-07T17:08:47;5.90;90.70
31675;DHT22;18276;45.520;11.018;2022-12-07T17:11:20;5.90;90.90
31675;DHT22;18276;45.520;11.018;2022-12-07T17:13:48;5.90;91.10
31675;DHT22;18276;45.520;11.018;2022-12-07T17:16:34;5.80;91.10
31675;DHT22;18276;45.520;11.018;2022-12-07T17:19:06;5.80;91.20
31675;DHT22;18276;45.520;11.018;2022-12-07T17:21:33;5.80;91.50
31675;DHT22;18276;45.520;11.018;2022-12-07T17:24:02;5.70;91.60
31675;DHT22;18276;45.520;11.018;2022-12-07T17:26:30;5.70;91.80
31675;DHT22;18276;45.520;11.018;2022-12-07T17:29:01;5.70;92.00
31675;DHT22;18276;45.520;11.018;2022-12-07T17:31:28;5.70;92.10
31675;DHT22;18276;45.520;11.018;2022-12-07T17:33:55;5.70;92.20
31675;DHT22;18276;45.520;11.018;2022-12-07T17:36:25;5.70;92.30
31675;DHT22;18276;45.520;11.018;2022-12-07T17:38:53;5.70;92.40
31675;DHT22;18276;45.520;11.018;2022-12-07T17:41:26;5.70;92.50
31675;DHT22;18276;45.520;11.018;2022-12-07T17:44:17;5.70;92.70
31675;DHT22;18276;45.520;11.018;2022-12-07T17:46:47;5.60;92.80
31675;DHT22;18276;45.520;11.018;2022-12-07T17:49:16;5.60;93.00
31675;DHT22;18276;45.520;11.018;2022-12-07T17:51:43;5.60;93.10
31675;DHT22;18276;45.520;11.018;2022-12-07T17:54:28;5.60;93.20
31675;DHT22;18276;45.520;11.018;2022-12-07T17:56:56;5.60;93.20
31675;DHT22;18276;45.520;11.018;2022-12-07T17:59:23;5.60;93.30
31675;DHT22;18276;45.520;11.018;2022-12-07T18:01:51;5.60;93.50
31675;DHT22;18276;45.520;11.018;2022-12-07T18:04:18;5.50;93.50
31675;DHT22;18276;45.520;11.018;2022-12-07T18:06:45;5.50;93.70
31675;DHT22;18276;45.520;11.018;2022-12-07T18:09:18;5.50;93.80
31675;DHT22;18276;45.520;11.018;2022-12-07T18:11:45;5.50;93.90
31675;DHT22;18276;45.520;11.018;2022-12-07T18:14:12;5.50;93.80
31675;DHT22;18276;45.520;11.018;2022-12-07T18:16:39;5.60;93.80
31675;DHT22;18276;45.520;11.018;2022-12-07T18:19:07;5.60;93.80
31675;DHT22;18276;45.520;11.018;2022-12-07T18:21:35;5.60;93.70
31675;DHT22;18276;45.520;11.018;2022-12-07T18:24:02;5.50;93.70
31675;DHT22;18276;45.520;11.018;2022-12-07T18:26:32;5.50;93.70
31675;DHT22;18276;45.520;11.018;2022-12-07T18:29:01;5.50;93.60
31675;DHT22;18276;45.520;11.018;2022-12-07T18:31:29;5.50;93.60
31675;DHT22;18276;45.520;11.018;2022-12-07T18:34:00;5.50;93.70
31675;DHT22;18276;45.520;11.018;2022-12-07T18:36:27;5.50;93.50
31675;DHT22;18276;45.520;11.018;2022-12-07T18:38:54;5.50;93.40
31675;DHT22;18276;45.520;11.018;2022-12-07T18:41:21;5.50;93.30
31675;DHT22;18276;45.520;11.018;2022-12-07T18:43:48;5.50;93.20
31675;DHT22;18276;45.520;11.018;2022-12-07T18:46:18;5.50;93.20
31675;DHT22;18276;45.520;11.018;2022-12-07T18:48:46;5.50;93.10
31675;DHT22;18276;45.520;11.018;2022-12-07T18:51:17;5.50;93.00
31675;DHT22;18276;45.520;11.018;2022-12-07T18:53:45;5.50;92.90
31675;DHT22;18276;45.520;11.018;2022-12-07T18:56:20;5.50;93.00
31675;DHT22;18276;45.520;11.018;2022-12-07T18:58:53;5.50;93.20
31675;DHT22;18276;45.520;11.018;2022-12-07T19:01:40;5.50;93.00
31675;DHT22;18276;45.520;11.018;2022-12-07T19:04:07;5.50;92.90
31675;DHT22;18276;45.520;11.018;2022-12-07T19:06:34;5.40;92.80
31675;DHT22;18276;45.520;11.018;2022-12-07T19:09:02;5.50;92.70
31675;DHT22;18276;45.520;11.018;2022-12-07T19:11:31;5.40;92.70
31675;DHT22;18276;45.520;11.018;2022-12-07T19:14:27;5.50;92.50
31675;DHT22;18276;45.520;11.018;2022-12-07T19:17:05;5.50;92.40
31675;DHT22;18276;45.520;11.018;2022-12-07T19:19:38;5.40;92.20
31675;DHT22;18276;45.520;11.018;2022-12-07T19:22:07;5.40;92.10
31675;DHT22;18276;45.520;11.018;2022-12-07T19:24:34;5.40;92.00
31675;DHT22;18276;45.520;11.018;2022-12-07T19:27:04;5.40;91.90
31675;DHT22;18276;45.520;11.018;2022-12-07T19:29:32;5.40;91.90
31675;DHT22;18276;45.520;11.018;2022-12-07T19:32:01;5.40;91.80
31675;DHT22;18276;45.520;11.018;2022-12-07T19:34:29;5.40;91.70
31675;DHT22;18276;45.520;11.018;2022-12-07T19:36:56;5.40;91.70
31675;DHT22;18276;45.520;11.018;2022-12-07T19:39:27;5.30;91.60
31675;DHT22;18276;45.520;11.018;2022-12-07T19:41:56;5.30;91.60
31675;DHT22;18276;45.520;11.018;2022-12-07T19:44:25;5.30;91.50
31675;DHT22;18276;45.520;11.018;2022-12-07T19:46:54;5.30;91.50
31675;DHT22;18276;45.520;11.018;2022-12-07T19:49:32;5.30;91.50
31675;DHT22;18276;45.520;11.018;2022-12-07T19:52:03;5.30;91.50
31675;DHT22;18276;45.520;11.018;2022-12-07T19:54:31;5.30;91.40
31675;DHT22;18276;45.520;11.018;2022-12-07T19:56:58;5.30;91.40
31675;DHT22;18276;45.520;11.018;2022-12-07T19:59:28;5.30;91.30
31675;DHT22;18276;45.520;11.018;2022-12-07T20:01:55;5.30;91.30
31675;DHT22;18276;45.520;11.018;2022-12-07T20:04:26;5.30;91.30
31675;DHT22;18276;45.520;11.018;2022-12-07T20:06:57;5.30;91.30
31675;DHT22;18276;45.520;11.018;2022-12-07T20:09:24;5.30;91.30
31675;DHT22;18276;45.520;11.018;2022-12-07T20:11:51;5.30;91.20
31675;DHT22;18276;45.520;11.018;2022-12-07T20:14:37;5.40;91.20
31675;DHT22;18276;45.520;11.018;2022-12-07T20:17:04;5.40;91.10
31675;DHT22;18276;45.520;11.018;2022-12-07T20:19:34;5.40;90.90
31675;DHT22;18276;45.520;11.018;2022-12-07T20:22:02;5.40;90.80
31675;DHT22;18276;45.520;11.018;2022-12-07T20:24:29;5.40;90.70
31675;DHT22;18276;45.520;11.018;2022-12-07T20:26:56;5.40;90.60
31675;DHT22;18276;45.520;11.018;2022-12-07T20:29:24;5.40;90.50
31675;DHT22;18276;45.520;11.018;2022-12-07T20:31:52;5.40;90.50
31675;DHT22;18276;45.520;11.018;2022-12-07T20:34:20;5.40;90.50
31675;DHT22;18276;45.520;11.018;2022-12-07T20:36:51;5.40;90.40
31675;DHT22;18276;45.520;11.018;2022-12-07T20:39:18;5.40;90.40
31675;DHT22;18276;45.520;11.018;2022-12-07T20:41:45;5.40;90.70
31675;DHT22;18276;45.520;11.018;2022-12-07T20:44:30;5.40;90.30
31675;DHT22;18276;45.520;11.018;2022-12-07T20:46:57;5.50;90.30
31675;DHT22;18276;45.520;11.018;2022-12-07T20:49:24;5.50;90.10
31675;DHT22;18276;45.520;11.018;2022-12-07T20:51:51;5.60;90.00
31675;DHT22;18276;45.520;11.018;2022-12-07T20:54:19;5.60;90.00
31675;DHT22;18276;45.520;11.018;2022-12-07T20:56:46;5.60;89.80
31675;DHT22;18276;45.520;11.018;2022-12-07T20:59:14;5.60;89.70
31675;DHT22;18276;45.520;11.018;2022-12-07T21:01:42;5.60;89.70
31675;DHT22;18276;45.520;11.018;2022-12-07T21:04:11;5.60;89.70
31675;DHT22;18276;45.520;11.018;2022-12-07T21:06:39;5.60;89.80
31675;DHT22;18276;45.520;11.018;2022-12-07T21:09:08;5.60;89.70
31675;DHT22;18276;45.520;11.018;2022-12-07T21:11:35;5.60;89.40
31675;DHT22;18276;45.520;11.018;2022-12-07T21:14:03;5.60;89.30
31675;DHT22;18276;45.520;11.018;2022-12-07T21:16:30;5.50;89.10
31675;DHT22;18276;45.520;11.018;2022-12-07T21:19:00;5.50;89.10
31675;DHT22;18276;45.520;11.018;2022-12-07T21:21:30;5.50;89.10
31675;DHT22;18276;45.520;11.018;2022-12-07T21:23:59;5.50;89.10
31675;DHT22;18276;45.520;11.018;2022-12-07T21:26:30;5.40;89.30
31675;DHT22;18276;45.520;11.018;2022-12-07T21:29:00;5.30;89.50
31675;DHT22;18276;45.520;11.018;2022-12-07T21:31:28;5.20;89.60
31675;DHT22;18276;45.520;11.018;2022-12-07T21:33:55;5.20;89.70
31675;DHT22;18276;45.520;11.018;2022-12-07T21:36:24;5.20;89.80
31675;DHT22;18276;45.520;11.018;2022-12-07T21:38:52;5.10;89.80
31675;DHT22;18276;45.520;11.018;2022-12-07T21:41:24;5.10;90.00
31675;DHT22;18276;45.520;11.018;2022-12-07T21:43:52;5.00;90.10
31675;DHT22;18276;45.520;11.018;2022-12-07T21:46:20;5.00;90.10
31675;DHT22;18276;45.520;11.018;2022-12-07T21:48:54;4.90;90.20
31675;DHT22;18276;45.520;11.018;2022-12-07T21:51:22;4.90;90.20
31675;DHT22;18276;45.520;11.018;2022-12-07T21:53:51;4.90;90.20
31675;DHT22;18276;45.520;11.018;2022-12-07T21:56:23;4.90;90.20
31675;DHT22;18276;45.520;11.018;2022-12-07T21:58:52;4.90;90.20
31675;DHT22;18276;45.520;11.018;2022-12-07T22:01:25;4.90;90.10
31675;DHT22;18276;45.520;11.018;2022-12-07T22:03:53;4.90;90.10
31675;DHT22;18276;45.520;11.018;2022-12-07T22:06:22;4.90;90.10
31675;DHT22;18276;45.520;11.018;2022-12-07T22:08:50;4.90;90.10
31675;DHT22;18276;45.520;11.018;2022-12-07T22:11:18;4.90;90.00
31675;DHT22;18276;45.520;11.018;2022-12-07T22:13:46;4.90;90.00
31675;DHT22;18276;45.520;11.018;2022-12-07T22:16:37;4.90;90.00
31675;DHT22;18276;45.520;11.018;2022-12-07T22:19:05;4.80;90.00
31675;DHT22;18276;45.520;11.018;2022-12-07T22:21:33;4.80;90.00
31675;DHT22;18276;45.520;11.018;2022-12-07T22:24:00;4.80;90.00
31675;DHT22;18276;45.520;11.018;2022-12-07T22:26:28;4.80;90.00
31675;DHT22;18276;45.520;11.018;2022-12-07T22:28:55;4.80;90.00
31675;DHT22;18276;45.520;11.018;2022-12-07T22:31:22;4.80;90.00
31675;DHT22;18276;45.520;11.018;2022-12-07T22:33:50;4.80;89.90
31675;DHT22;18276;45.520;11.018;2022-12-07T22:36:17;4.80;89.70
31675;DHT22;18276;45.520;11.018;2022-12-07T22:38:45;4.80;90.20
31675;DHT22;18276;45.520;11.018;2022-12-07T22:41:18;4.80;89.80
31675;DHT22;18276;45.520;11.018;2022-12-07T22:43:45;4.80;89.80
31675;DHT22;18276;45.520;11.018;2022-12-07T22:46:12;4.80;89.80
31675;DHT22;18276;45.520;11.018;2022-12-07T22:48:39;4.80;89.80
31675;DHT22;18276;45.520;11.018;2022-12-07T22:51:06;4.70;89.90